Nearby METAR Reports

 

ESTA - Ängelholm, Sweden
Distance from station: SSV 17km
Uppdaterad: 06/07/2022 07:20
Övervägande molnigt
Övervägande molnigt
 Vind från V
Vind: V 24 km/h
Temperatur: 15°C
Daggpunkt: 9°C
Luftfuktighet: 68%
Barometer: 1016 hPa
Clouds: Övervägande molnigt
Visibility: 10 km
Cloud details: Delvis molnigt 762 m
Övervägande molnigt 1189 m
2022/07/06 05:20 ESTA 060520Z AUTO 27013KT 9999 SCT025/// BKN039/// 15/09 Q1016
ESMT - Halmstad, Sweden
Distance from station: N 26km
Uppdaterad: 06/07/2022 07:50
Övervägande molnigt
Övervägande molnigt
 Vind från V
Vind: V 19 km/h
Temperatur: 15°C
Daggpunkt: 10°C
Luftfuktighet: 72%
Barometer: 1016 hPa
Clouds: Övervägande molnigt
Visibility: 10 km
Cloud details: Övervägande molnigt 1097 m
2022/07/06 05:50 ESMT 060550Z AUTO 28010KT 9999 BKN036/// 15/10 Q1016
 
EKCH - Copenhagen/Kastrup, Denmark
Distance from station: S 92km
Uppdaterad: 06/07/2022 07:50
Delvis molnigt
Delvis molnigt
 Vind från V
Vind: V 22 km/h
Temperatur: 15°C
Daggpunkt: 10°C
Luftfuktighet: 72%
Barometer: 1018 hPa
Clouds: Delvis molnigt
Visibility: 10 km
Cloud details: Delvis molnigt 671 m
2022/07/06 05:50 EKCH 060550Z AUTO 28012KT 250V310 9999 SCT022/// 15/10 Q1018 NOSIG
ESMK - Kristianstad/Everöd, Sweden
Distance from station: SO 93km
Uppdaterad: 06/07/2022 07:50
Klart
Klart
 Vind från V
Vind: V 19 km/h
Temperatur: 15°C
Daggpunkt: 11°C
Luftfuktighet: 77%
Barometer: 1016 hPa
Clouds: Klart
Visibility: 10 km
2022/07/06 05:50 ESMK 060550Z AUTO 27010KT 9999 NCD 15/11 Q1016
 
ESMS - Malmö/Sturup, Sweden
Distance from station: SSO 104km
Uppdaterad: 06/07/2022 07:50
Few Clouds
Few Clouds
 Vind från V
Vind: V 19 km/h
Temperatur: 15°C
Daggpunkt: 10°C
Luftfuktighet: 72%
Barometer: 1017 hPa
Clouds: Few Clouds
Visibility: 10 km
Cloud details: Few Clouds 1250 m
2022/07/06 05:50 ESMS 060550Z 27010KT 9999 FEW041 15/10 Q1017
ESMX - Växjö/Kronoberg, Sweden
Distance from station: ONO 124km
Uppdaterad: 06/07/2022 07:50
Delvis molnigt
Delvis molnigt
 Vind från SV
Vind: SV 17 km/h
Temperatur: 14°C
Daggpunkt: 11°C
Luftfuktighet: 82%
Barometer: 1015 hPa
Clouds: Delvis molnigt
Visibility: 10 km
Cloud details: Delvis molnigt 396 m
2022/07/06 05:50 ESMX 060550Z AUTO 23009KT 9999 SCT013/// 14/11 Q1015
 
EKAH - Tirstrup, Denmark
Distance from station: V 141km
Uppdaterad: 06/07/2022 07:50
Klart
Klart
 Vind från V
Vind: V 22 km/h
Temperatur: 14°C
Daggpunkt: 10°C
Luftfuktighet: 77%
Barometer: 1018 hPa
Clouds: Klart
Visibility: 10 km
2022/07/06 05:50 EKAH 060550Z AUTO 27012KT 9999 NCD 14/10 Q1018
ESGG - Göteborg/Landvetter, Sweden
Distance from station: NNV 142km
Uppdaterad: 06/07/2022 07:50
Klart
Klart
 Vind från VNV
Vind: VNV 13 km/h
Temperatur: 15°C
Daggpunkt: 9°C
Luftfuktighet: 68%
Barometer: 1014 hPa
Summering: Klart
Visibility: greater than 10 km
2022/07/06 05:50 ESGG 060550Z 30007KT 270V350 CAVOK 15/09 Q1014
 
ESDF - Ronneby, Sweden
Distance from station: O 147km
Uppdaterad: 06/07/2022 07:20
Delvis molnigt
Delvis molnigt
 Vind från VSV
Vind: VSV 9 km/h
Temperatur: 14°C
Daggpunkt: 12°C
Luftfuktighet: 88%
Barometer: 1016 hPa
Clouds: Delvis molnigt
Visibility: 10 km
Cloud details: Delvis molnigt 2073 m
2022/07/06 05:20 ESDF 060520Z AUTO 25005KT 9999 SCT068/// 14/12 Q1016
ESGJ - Jönköping Airport, Sweden
Distance from station: NNO 164km
Uppdaterad: 06/07/2022 07:50
Few Clouds
Few Clouds
 Vind från VSV
Vind: VSV 20 km/h
Temperatur: 13°C
Daggpunkt: 12°C
Luftfuktighet: 94%
Barometer: 1013 hPa
Clouds: Few Clouds
Visibility: 10 km
Cloud details: Few Clouds 366 m
2022/07/06 05:50 ESGJ 060550Z 25011KT 9999 FEW012 13/12 Q1013
 
EKOD - Odense/Beldringe, Denmark
Distance from station: VSV 193km
Uppdaterad: 06/07/2022 07:50
Klart
Klart
 Vind från V
Vind: V 17 km/h
Temperatur: 13°C
Daggpunkt: 11°C
Luftfuktighet: 88%
Barometer: 1020 hPa
Summering: Klart
Visibility: greater than 10 km
2022/07/06 05:50 EKOD 060550Z 27009KT 240V300 CAVOK 13/11 Q1020
EKYT - AAlborg, Denmark
Distance from station: VNV 199km
Uppdaterad: 06/07/2022 07:50
Klart
Klart
 Vind från VNV
Vind: VNV 22 km/h
Temperatur: 15°C
Daggpunkt: 8°C
Luftfuktighet: 63%
Barometer: 1016 hPa
Clouds: Klart
Visibility: 10 km
2022/07/06 05:50 EKYT 060550Z AUTO 30012KT 9999 NCD 15/08 Q1016
 
ESMQ - Kalmar, Sweden
Distance from station: O 211km
Uppdaterad: 06/07/2022 07:50
Klart
Klart
 Vind från VSV
Vind: VSV 13 km/h
Barometer: 1015 hPa
Summering: Klart
Visibility: greater than 10 km
2022/07/06 05:50 ESMQ 060550Z 24007KT CAVOK ///// Q1015